CG Campbell — NRDC — position and weather

sailwx.info

Track history (hours):
 
Tides and Currents Weather Stations Pressure Air Temp Water Temp Dewpoint Dewpoint Depression Visibility Wind Speed Wind Dir Waves Ship Positions

CG Campbell

Last reported at 2018-Jan-01 15:01 UTC. Time now 2018-Jan-19 11:41 UTC.
Position N 42°55' W 070°38'.
Warning: this ship's position is 17 days out of date.

Length 82 m; draft 4.3 m.

Type: Law enforcement. MMSI: 367289000.

Date/timePositionNaut miles runAvg speedWind from/ knotsBaromVisibWave heightAir tempDewpointWater temp
2018-Jan-01 15:01N 42°55' W 070°38'3 6.2
2018-Jan-01 14:30N 42°56' W 070°34'3 6.6
2018-Jan-01 14:00N 42°56' W 070°30'3 7.1
2018-Jan-01 13:30N 42°55' W 070°25'3 5.3
2018-Jan-01 13:00N 42°57' W 070°28'3 3.1
2018-Jan-01 12:00N 42°58' W 070°31'3 6.0
2018-Jan-01 11:31N 42°59' W 070°27'2 3.8
2018-Jan-01 11:00N 42°57' W 070°26'3 6.2
2018-Jan-01 10:30N 42°54' W 070°26'3 5.4
2018-Jan-01 10:01N 42°53' W 070°29'3 5.6
2018-Jan-01 09:30N 42°56' W 070°29'7 6.8
2018-Jan-01 08:30N 42°58' W 070°20'  
2017-Dec-29 15:19N 42°53' W 070°05'2 6.2
2017-Dec-29 15:00N 42°52' W 070°08'3 6.2
2017-Dec-29 14:30N 42°51' W 070°12'3 6.0
2017-Dec-29 14:00N 42°51' W 070°16'3 6.0
2017-Dec-29 13:30N 42°50' W 070°20'3 6.0
2017-Dec-29 13:00N 42°50' W 070°24'3 6.0
2017-Dec-29 12:30N 42°50' W 070°28'3 5.5
2017-Dec-29 12:00N 42°52' W 070°30'3 5.1
2017-Dec-29 11:31N 42°49' W 070°29'3 5.8
2017-Dec-29 11:01N 42°46' W 070°28'1 2.2
2017-Dec-29 10:30N 42°47' W 070°29'3 6.6
2017-Dec-29 10:00N 42°50' W 070°31'3 5.5
2017-Dec-29 09:30N 42°53' W 070°32'3 6.2
2017-Dec-29 09:00N 42°50' W 070°31'3 6.2
2017-Dec-29 08:30N 42°47' W 070°29'3 6.3
2017-Dec-29 08:01N 42°44' W 070°28'1 2.6
2017-Dec-29 07:30N 42°43' W 070°29'6 0.6
2017-Dec-28 21:16N 42°48' W 070°25'2 7.7
2017-Dec-28 21:00N 42°50' W 070°27'4 8.1
2017-Dec-28 20:30N 42°52' W 070°31'2 3.4
2017-Dec-28 20:00N 42°51' W 070°29'5 9.1
2017-Dec-28 19:30N 42°48' W 070°25'1 1.6
2017-Dec-28 19:00N 42°47' W 070°24'3 5.3
2017-Dec-28 18:30N 42°49' W 070°27'2 4.7
2017-Dec-28 18:00N 42°51' W 070°28'2 4.0
2017-Dec-28 17:30N 42°50' W 070°27'2 4.3
2017-Dec-28 17:00N 42°48' W 070°25'2 4.4
2017-Dec-28 16:30N 42°46' W 070°24'3 6.9
2017-Dec-28 16:00N 42°47' W 070°28'4 7.1
2017-Dec-28 15:30N 42°49' W 070°32'2 3.8
2017-Dec-28 15:00N 42°51' W 070°34'2 4.7
2017-Dec-28 14:30N 42°49' W 070°31'2 4.6
2017-Dec-28 14:00N 42°48' W 070°29'2 4.2
2017-Dec-28 13:31N 42°47' W 070°26'2 3.9
2017-Dec-28 13:00N 42°46' W 070°24'3 5.7
2017-Dec-28 12:30N 42°48' W 070°26'2 0.2
2017-Dec-28 02:08N 42°49' W 070°28'110.9
2017-Dec-28 02:00N 42°48' W 070°28'510.9
2017-Dec-28 01:30N 42°43' W 070°25'510.4
2017-Dec-28 01:00N 42°38' W 070°24'611.1
2017-Dec-28 00:30N 42°32' W 070°26'611.4
2017-Dec-28 00:00N 42°27' W 070°28'611.1
2017-Dec-27 23:30N 42°21' W 070°29'4 8.8
2017-Dec-27 23:00N 42°20' W 070°35'511.0
2017-Dec-27 22:30N 42°21' W 070°42'612.1
2017-Dec-27 22:00N 42°23' W 070°50'5 9.2
2017-Dec-27 21:30N 42°21' W 070°56'2 1.7
2017-Dec-27 20:30N 42°21' W 070°58'3 5.3
2017-Dec-27 20:00N 42°21' W 071°01'2 3.2
2017-Dec-27 19:26N 42°22' W 071°03'  
2017-Dec-24 13:56N 42°22' W 071°03'0 0.3
2017-Dec-24 13:30N 42°22' W 071°03'4 8.1
2017-Dec-24 13:00N 42°20' W 070°58'611.6
2017-Dec-24 12:30N 42°23' W 070°52'4 8.4
2017-Dec-24 12:00N 42°23' W 070°46'2 4.6
2017-Dec-24 11:30N 42°23' W 070°43'3 6.0
2017-Dec-24 11:00N 42°22' W 070°39'3 5.9
2017-Dec-24 10:30N 42°22' W 070°35'3 6.0
2017-Dec-24 10:00N 42°23' W 070°31'3 5.7
2017-Dec-24 09:30N 42°23' W 070°27'3 6.2
2017-Dec-24 09:01N 42°24' W 070°23'3 6.2
2017-Dec-24 08:30N 42°24' W 070°19'3 5.9
2017-Dec-24 08:01N 42°25' W 070°15'3 6.3
2017-Dec-24 07:30N 42°25' W 070°10'3 6.4
2017-Dec-24 07:00N 42°26' W 070°06'3 6.7
2017-Dec-24 06:30N 42°26' W 070°02'3 6.7
2017-Dec-24 06:00N 42°27' W 069°57'  
Track history (hours):
 
Tides and Currents Weather Stations Pressure Air Temp Water Temp Dewpoint Dewpoint Depression Visibility Wind Speed Wind Dir Waves Ship Positions

CG Campbell

Last reported at 2018-Jan-01 15:01 UTC. Time now 2018-Jan-19 11:41 UTC.
Position N 42°55' W 070°38'.
Warning: this ship's position is 17 days out of date.

Length 82 m; draft 4.3 m.

Type: Law enforcement. MMSI: 367289000.

Date/timePositionNaut miles runAvg speedWind from/ knotsBaromVisibWave heightAir tempDewpointWater temp
2018-Jan-01 15:01N 42°55' W 070°38'3 6.2
2018-Jan-01 14:30N 42°56' W 070°34'3 6.6
2018-Jan-01 14:00N 42°56' W 070°30'3 7.1
2018-Jan-01 13:30N 42°55' W 070°25'3 5.3
2018-Jan-01 13:00N 42°57' W 070°28'3 3.1
2018-Jan-01 12:00N 42°58' W 070°31'3 6.0
2018-Jan-01 11:31N 42°59' W 070°27'2 3.8
2018-Jan-01 11:00N 42°57' W 070°26'3 6.2
2018-Jan-01 10:30N 42°54' W 070°26'3 5.4
2018-Jan-01 10:01N 42°53' W 070°29'3 5.6
2018-Jan-01 09:30N 42°56' W 070°29'7 6.8
2018-Jan-01 08:30N 42°58' W 070°20'  
2017-Dec-29 15:19N 42°53' W 070°05'2 6.2
2017-Dec-29 15:00N 42°52' W 070°08'3 6.2
2017-Dec-29 14:30N 42°51' W 070°12'3 6.0
2017-Dec-29 14:00N 42°51' W 070°16'3 6.0
2017-Dec-29 13:30N 42°50' W 070°20'3 6.0
2017-Dec-29 13:00N 42°50' W 070°24'3 6.0
2017-Dec-29 12:30N 42°50' W 070°28'3 5.5
2017-Dec-29 12:00N 42°52' W 070°30'3 5.1
2017-Dec-29 11:31N 42°49' W 070°29'3 5.8
2017-Dec-29 11:01N 42°46' W 070°28'1 2.2
2017-Dec-29 10:30N 42°47' W 070°29'3 6.6
2017-Dec-29 10:00N 42°50' W 070°31'3 5.5
2017-Dec-29 09:30N 42°53' W 070°32'3 6.2
2017-Dec-29 09:00N 42°50' W 070°31'3 6.2
2017-Dec-29 08:30N 42°47' W 070°29'3 6.3
2017-Dec-29 08:01N 42°44' W 070°28'1 2.6
2017-Dec-29 07:30N 42°43' W 070°29'6 0.6
2017-Dec-28 21:16N 42°48' W 070°25'2 7.7
2017-Dec-28 21:00N 42°50' W 070°27'4 8.1
2017-Dec-28 20:30N 42°52' W 070°31'2 3.4
2017-Dec-28 20:00N 42°51' W 070°29'5 9.1
2017-Dec-28 19:30N 42°48' W 070°25'1 1.6
2017-Dec-28 19:00N 42°47' W 070°24'3 5.3
2017-Dec-28 18:30N 42°49' W 070°27'2 4.7
2017-Dec-28 18:00N 42°51' W 070°28'2 4.0
2017-Dec-28 17:30N 42°50' W 070°27'2 4.3
2017-Dec-28 17:00N 42°48' W 070°25'2 4.4
2017-Dec-28 16:30N 42°46' W 070°24'3 6.9
2017-Dec-28 16:00N 42°47' W 070°28'4 7.1
2017-Dec-28 15:30N 42°49' W 070°32'2 3.8
2017-Dec-28 15:00N 42°51' W 070°34'2 4.7
2017-Dec-28 14:30N 42°49' W 070°31'2 4.6
2017-Dec-28 14:00N 42°48' W 070°29'2 4.2
2017-Dec-28 13:31N 42°47' W 070°26'2 3.9
2017-Dec-28 13:00N 42°46' W 070°24'3 5.7
2017-Dec-28 12:30N 42°48' W 070°26'2 0.2
2017-Dec-28 02:08N 42°49' W 070°28'110.9
2017-Dec-28 02:00N 42°48' W 070°28'510.9
2017-Dec-28 01:30N 42°43' W 070°25'510.4
2017-Dec-28 01:00N 42°38' W 070°24'611.1
2017-Dec-28 00:30N 42°32' W 070°26'611.4
2017-Dec-28 00:00N 42°27' W 070°28'611.1
2017-Dec-27 23:30N 42°21' W 070°29'4 8.8
2017-Dec-27 23:00N 42°20' W 070°35'511.0
2017-Dec-27 22:30N 42°21' W 070°42'612.1
2017-Dec-27 22:00N 42°23' W 070°50'5 9.2
2017-Dec-27 21:30N 42°21' W 070°56'2 1.7
2017-Dec-27 20:30N 42°21' W 070°58'3 5.3
2017-Dec-27 20:00N 42°21' W 071°01'2 3.2
2017-Dec-27 19:26N 42°22' W 071°03'  
2017-Dec-24 13:56N 42°22' W 071°03'0 0.3
2017-Dec-24 13:30N 42°22' W 071°03'4 8.1
2017-Dec-24 13:00N 42°20' W 070°58'611.6
2017-Dec-24 12:30N 42°23' W 070°52'4 8.4
2017-Dec-24 12:00N 42°23' W 070°46'2 4.6
2017-Dec-24 11:30N 42°23' W 070°43'3 6.0
2017-Dec-24 11:00N 42°22' W 070°39'3 5.9
2017-Dec-24 10:30N 42°22' W 070°35'3 6.0
2017-Dec-24 10:00N 42°23' W 070°31'3 5.7
2017-Dec-24 09:30N 42°23' W 070°27'3 6.2
2017-Dec-24 09:01N 42°24' W 070°23'3 6.2
2017-Dec-24 08:30N 42°24' W 070°19'3 5.9
2017-Dec-24 08:01N 42°25' W 070°15'3 6.3
2017-Dec-24 07:30N 42°25' W 070°10'3 6.4
2017-Dec-24 07:00N 42°26' W 070°06'3 6.7
2017-Dec-24 06:30N 42°26' W 070°02'3 6.7
2017-Dec-24 06:00N 42°27' W 069°57'  

Dump ship's entire track history